createdAt,value
2023-05-21T00:01:16.410Z,36.65
2023-05-21T00:03:46.062Z,43.20
2023-05-21T00:06:16.418Z,34.20
2023-05-21T00:08:43.329Z,34.60
2023-05-21T00:11:11.211Z,40.22
2023-05-21T00:13:38.720Z,37.50
2023-05-21T00:16:06.050Z,36.28
2023-05-21T00:18:34.344Z,38.00
2023-05-21T00:21:01.909Z,35.25
2023-05-21T00:23:29.147Z,37.05
2023-05-21T00:25:56.420Z,38.08
2023-05-21T00:28:23.159Z,44.15
2023-05-21T00:30:49.935Z,36.22
2023-05-21T00:33:16.757Z,36.63
2023-05-21T00:35:43.629Z,32.83
2023-05-21T00:38:10.397Z,38.03
2023-05-21T00:40:37.168Z,38.55
2023-05-21T00:43:03.907Z,38.95
2023-05-21T00:45:30.675Z,37.33
2023-05-21T00:47:57.890Z,38.90
2023-05-21T00:50:24.879Z,34.08
2023-05-21T00:52:51.917Z,35.55
2023-05-21T00:55:18.762Z,39.22
2023-05-21T00:57:46.219Z,40.63
2023-05-21T01:00:14.968Z,34.25
2023-05-21T01:02:42.379Z,33.38
2023-05-21T01:05:10.730Z,33.97
2023-05-21T01:07:41.584Z,33.88
2023-05-21T01:10:10.832Z,33.78
2023-05-21T01:12:40.681Z,30.77
2023-05-21T01:15:08.742Z,35.00
2023-05-21T01:17:35.749Z,40.85
2023-05-21T01:20:10.185Z,34.47
2023-05-21T01:22:42.099Z,38.35
2023-05-21T01:25:09.613Z,49.30
2023-05-21T01:27:36.328Z,47.20
2023-05-21T01:30:03.312Z,38.70
2023-05-21T01:32:50.036Z,50.13
2023-05-21T01:35:26.397Z,41.10
2023-05-21T01:38:06.268Z,37.13
2023-05-21T01:40:54.601Z,38.15
2023-05-21T01:43:23.620Z,38.15
2023-05-21T01:45:54.647Z,38.85
2023-05-21T01:48:24.374Z,39.13
2023-05-21T01:50:53.072Z,37.47
2023-05-21T01:53:19.901Z,39.80
2023-05-21T01:55:47.096Z,43.13
2023-05-21T01:58:15.788Z,44.13
2023-05-21T02:00:42.827Z,41.17
2023-05-21T02:03:09.712Z,35.58
2023-05-21T02:05:36.784Z,37.95
2023-05-21T02:08:03.882Z,41.40
2023-05-21T02:10:30.777Z,38.60
2023-05-21T02:12:57.530Z,36.50
2023-05-21T02:15:25.012Z,44.75
2023-05-21T02:17:51.923Z,48.33
2023-05-21T02:20:19.150Z,48.75
2023-05-21T02:22:48.162Z,32.50
2023-05-21T02:25:16.838Z,33.00
2023-05-21T02:27:44.648Z,47.92
2023-05-21T02:30:12.645Z,45.17
2023-05-21T02:32:43.289Z,32.25
2023-05-21T02:35:11.904Z,41.65
2023-05-21T02:37:40.652Z,38.90
2023-05-21T02:40:10.245Z,37.03
2023-05-21T02:42:39.765Z,40.42
2023-05-21T02:45:11.725Z,32.85
2023-05-21T02:47:39.223Z,34.55
2023-05-21T02:50:07.937Z,35.90
2023-05-21T02:52:34.948Z,36.47
2023-05-21T02:55:01.707Z,41.08
2023-05-21T02:57:28.493Z,37.58
2023-05-21T02:59:55.217Z,45.83
2023-05-21T03:02:22.655Z,43.65
2023-05-21T03:04:51.657Z,39.28
2023-05-21T03:07:20.075Z,36.80
2023-05-21T03:09:47.314Z,39.78
2023-05-21T03:12:15.134Z,38.22
2023-05-21T03:14:46.583Z,41.03
2023-05-21T03:17:17.253Z,41.47
2023-05-21T03:19:45.011Z,37.75
2023-05-21T03:22:12.337Z,37.97
2023-05-21T03:24:39.450Z,40.58
2023-05-21T03:27:07.196Z,43.08
2023-05-21T03:29:34.927Z,41.50
2023-05-21T03:32:02.390Z,43.03
2023-05-21T03:34:29.254Z,50.97
2023-05-21T03:36:56.008Z,47.47
2023-05-21T03:39:22.802Z,43.95
2023-05-21T03:41:49.571Z,40.75
2023-05-21T03:44:16.488Z,44.75
2023-05-21T03:46:45.149Z,48.30
2023-05-21T03:49:11.936Z,44.67
2023-05-21T03:51:39.722Z,49.22
2023-05-21T03:54:06.658Z,40.70
2023-05-21T03:56:33.573Z,50.55
2023-05-21T03:59:00.352Z,53.78
2023-05-21T04:01:28.539Z,56.92
2023-05-21T04:03:55.940Z,48.95
2023-05-21T04:06:22.903Z,57.35
2023-05-21T04:08:49.866Z,51.15
2023-05-21T04:11:16.937Z,49.35
2023-05-21T04:13:43.755Z,61.63
2023-05-21T04:16:10.974Z,55.08
2023-05-21T04:18:39.550Z,45.22
2023-05-21T04:21:06.425Z,46.65
2023-05-21T04:23:33.779Z,54.22
2023-05-21T04:26:00.590Z,44.45
2023-05-21T04:28:29.986Z,57.17
2023-05-21T04:30:56.792Z,53.20
2023-05-21T04:33:24.611Z,52.38
2023-05-21T04:35:52.172Z,55.80
2023-05-21T04:38:19.930Z,64.45
2023-05-21T04:40:51.057Z,55.80
2023-05-21T04:43:18.116Z,60.17
2023-05-21T04:45:45.272Z,62.17
2023-05-21T04:48:12.785Z,57.60
2023-05-21T04:50:41.666Z,51.15
2023-05-21T04:53:08.821Z,51.47
2023-05-21T04:55:40.059Z,55.28
2023-05-21T04:58:13.178Z,50.90
2023-05-21T05:00:42.333Z,54.15
2023-05-21T05:03:09.327Z,51.75
2023-05-21T05:05:36.444Z,48.25
2023-05-21T05:08:04.201Z,51.03
2023-05-21T05:10:30.996Z,60.45
2023-05-21T05:12:57.739Z,54.70
2023-05-21T05:15:24.488Z,49.90
2023-05-21T05:17:52.379Z,54.35
2023-05-21T05:20:19.187Z,53.50
2023-05-21T05:22:45.985Z,62.63
2023-05-21T05:25:12.691Z,52.45
2023-05-21T05:27:39.520Z,50.97
2023-05-21T05:30:07.356Z,56.53
2023-05-21T05:32:37.075Z,54.95
2023-05-21T05:35:04.144Z,51.85
2023-05-21T05:37:31.199Z,57.83
2023-05-21T05:39:58.004Z,60.25
2023-05-21T05:42:24.875Z,49.60
2023-05-21T05:44:51.631Z,53.55
2023-05-21T05:47:18.321Z,48.03
2023-05-21T05:49:45.106Z,53.15
2023-05-21T05:52:11.979Z,54.03
2023-05-21T05:54:38.893Z,60.70
2023-05-21T05:57:05.977Z,54.42
2023-05-21T05:59:34.004Z,54.70
2023-05-21T06:02:01.511Z,45.28
2023-05-21T06:04:30.253Z,45.38
2023-05-21T06:07:00.687Z,52.13
2023-05-21T06:09:27.522Z,48.83
2023-05-21T06:11:54.373Z,44.35
2023-05-21T06:14:21.174Z,40.22
2023-05-21T06:16:47.914Z,44.72
2023-05-21T06:19:14.841Z,41.45
2023-05-21T06:21:41.637Z,45.22
2023-05-21T06:24:08.388Z,49.10
2023-05-21T06:26:35.221Z,45.40
2023-05-21T06:29:03.849Z,51.90
2023-05-21T06:31:33.301Z,50.10
2023-05-21T06:34:00.918Z,45.78
2023-05-21T06:36:30.239Z,49.17
2023-05-21T06:38:57.450Z,48.08
2023-05-21T06:41:24.329Z,50.00
2023-05-21T06:43:51.647Z,44.03
2023-05-21T06:46:18.627Z,43.45
2023-05-21T06:48:46.514Z,46.53
2023-05-21T06:51:14.466Z,48.85
2023-05-21T06:53:41.382Z,43.40
2023-05-21T06:56:08.478Z,44.63
2023-05-21T06:58:35.338Z,45.55
2023-05-21T07:01:02.605Z,43.30
2023-05-21T07:03:29.675Z,41.90
2023-05-21T07:05:57.850Z,46.92
2023-05-21T07:08:24.659Z,49.58
2023-05-21T07:10:51.568Z,39.00
2023-05-21T07:13:18.559Z,44.33
2023-05-21T07:15:45.522Z,41.38
2023-05-21T07:18:13.396Z,46.00
2023-05-21T07:20:40.326Z,38.15
2023-05-21T07:23:07.200Z,43.47
2023-05-21T07:25:34.361Z,38.50
2023-05-21T07:28:01.356Z,42.65
2023-05-21T07:30:28.307Z,46.33
2023-05-21T07:32:55.148Z,38.70
2023-05-21T07:35:22.075Z,39.88
2023-05-21T07:37:48.883Z,35.63
2023-05-21T07:40:15.946Z,30.45
2023-05-21T07:42:42.748Z,30.00
2023-05-21T07:45:09.897Z,27.52
2023-05-21T07:47:36.802Z,29.75
2023-05-21T07:50:03.747Z,29.88
2023-05-21T07:52:30.621Z,37.60
2023-05-21T07:54:57.412Z,39.85
2023-05-21T07:57:27.721Z,35.53
2023-05-21T07:59:54.517Z,35.45
2023-05-21T08:02:21.658Z,39.63
2023-05-21T08:04:48.684Z,34.30
2023-05-21T08:07:17.164Z,38.30
2023-05-21T08:09:47.232Z,47.15
2023-05-21T08:12:16.798Z,36.60
2023-05-21T08:14:44.000Z,34.70
2023-05-21T08:17:14.005Z,30.30
2023-05-21T08:19:42.089Z,23.17
2023-05-21T08:22:08.908Z,23.63
2023-05-21T08:24:35.729Z,21.75
2023-05-21T08:27:02.476Z,20.75
2023-05-21T08:29:29.270Z,40.25
2023-05-21T08:31:56.532Z,19.42
2023-05-21T08:34:23.372Z,21.30
2023-05-21T08:36:50.358Z,17.25
2023-05-21T08:39:18.337Z,27.35
2023-05-21T08:41:49.810Z,25.63
2023-05-21T08:44:21.872Z,26.35
2023-05-21T08:49:18.847Z,26.75
2023-05-21T08:51:47.506Z,22.80
2023-05-21T08:54:14.447Z,27.77
2023-05-21T08:56:47.220Z,20.85
2023-05-21T08:59:15.195Z,25.65
2023-05-21T09:01:44.697Z,20.13
2023-05-21T09:04:20.971Z,20.80
2023-05-21T09:06:48.672Z,18.15
2023-05-21T09:09:30.324Z,21.23
2023-05-21T09:11:57.174Z,23.23
2023-05-21T09:14:24.590Z,19.05
2023-05-21T09:16:51.535Z,22.05
2023-05-21T09:19:22.416Z,25.02
2023-05-21T09:21:52.502Z,28.00
2023-05-21T09:24:22.733Z,20.00
2023-05-21T09:26:52.698Z,25.92
2023-05-21T09:29:19.541Z,23.77
2023-05-21T09:31:46.549Z,24.38
2023-05-21T09:34:16.551Z,27.15
2023-05-21T09:36:47.195Z,25.48
2023-05-21T09:39:28.012Z,22.92
2023-05-21T09:41:57.501Z,20.20
2023-05-21T09:44:24.467Z,20.10
2023-05-21T09:46:59.125Z,21.27
2023-05-21T09:49:26.676Z,21.20
2023-05-21T09:51:59.578Z,18.55
2023-05-21T09:54:31.951Z,25.98
2023-05-21T09:57:01.604Z,24.45
2023-05-21T09:59:39.118Z,23.05
2023-05-21T10:02:21.476Z,22.13
2023-05-21T10:04:50.499Z,15.43
2023-05-21T10:07:21.795Z,16.90
2023-05-21T10:09:49.321Z,15.88
2023-05-21T10:12:19.245Z,14.60
2023-05-21T10:14:52.552Z,20.15
2023-05-21T10:17:19.837Z,18.90
2023-05-21T10:19:48.740Z,16.77
2023-05-21T10:22:16.928Z,19.77
2023-05-21T10:24:45.340Z,18.45
2023-05-21T10:27:14.191Z,19.05
2023-05-21T10:29:41.984Z,18.70
2023-05-21T10:32:08.822Z,23.60
2023-05-21T10:34:38.389Z,17.02
2023-05-21T10:37:08.641Z,20.73
2023-05-21T10:39:37.033Z,21.70
2023-05-21T10:42:16.182Z,26.00
2023-05-21T10:44:59.527Z,20.88
2023-05-21T10:48:05.207Z,17.70
2023-05-21T10:50:50.474Z,24.20
2023-05-21T10:53:29.079Z,17.58
2023-05-21T10:56:07.647Z,17.58
2023-05-21T10:59:12.640Z,18.67
2023-05-21T11:01:41.898Z,16.55
2023-05-21T11:04:10.017Z,18.73
2023-05-21T11:06:36.788Z,19.13
2023-05-21T11:09:16.475Z,18.85
2023-05-21T11:11:50.981Z,18.10
2023-05-21T11:14:31.830Z,21.42
2023-05-21T11:17:07.743Z,18.00
2023-05-21T11:19:47.590Z,23.52
2023-05-21T11:22:20.574Z,17.80
2023-05-21T11:24:50.864Z,14.43
2023-05-21T11:27:40.981Z,13.02
2023-05-21T11:30:14.630Z,21.30
2023-05-21T11:33:11.328Z,15.52
2023-05-21T11:35:50.516Z,14.75
2023-05-21T11:38:18.238Z,15.20
2023-05-21T11:40:56.535Z,17.52
2023-05-21T11:43:23.338Z,15.40
2023-05-21T11:45:52.820Z,15.45
2023-05-21T11:48:21.512Z,19.63
2023-05-21T11:50:48.716Z,19.23
2023-05-21T11:53:15.867Z,17.33
2023-05-21T11:55:43.773Z,19.95
2023-05-21T11:58:14.468Z,17.08
2023-05-21T12:00:41.432Z,14.23
2023-05-21T12:03:12.975Z,16.73
2023-05-21T12:05:49.837Z,17.27
2023-05-21T12:08:27.203Z,18.75
2023-05-21T12:11:01.895Z,14.43
2023-05-21T12:13:28.912Z,15.60
2023-05-21T12:15:56.141Z,21.92
2023-05-21T12:18:23.003Z,17.92
2023-05-21T12:20:52.252Z,22.55
2023-05-21T12:23:20.865Z,19.27
2023-05-21T12:25:47.716Z,17.60
2023-05-21T12:28:15.571Z,17.45
2023-05-21T12:30:42.438Z,21.70
2023-05-21T12:33:09.378Z,23.48
2023-05-21T12:35:37.506Z,22.67
2023-05-21T12:38:05.228Z,21.77
2023-05-21T12:40:39.889Z,15.85
2023-05-21T12:43:07.528Z,16.52
2023-05-21T12:45:34.716Z,16.25
2023-05-21T12:48:02.399Z,17.83
2023-05-21T12:50:29.321Z,18.20
2023-05-21T12:52:57.834Z,16.60
2023-05-21T12:55:28.864Z,15.88
2023-05-21T12:58:10.933Z,16.25
2023-05-21T13:00:38.130Z,16.38
2023-05-21T13:03:06.792Z,15.15
2023-05-21T13:05:34.621Z,17.77
2023-05-21T13:08:01.546Z,16.13
2023-05-21T13:10:29.438Z,10.52
2023-05-21T13:12:56.609Z,11.35
2023-05-21T13:15:23.484Z,14.80
2023-05-21T13:17:51.148Z,11.23
2023-05-21T13:20:26.386Z,14.20
2023-05-21T13:22:54.145Z,13.75
2023-05-21T13:25:25.060Z,12.95
2023-05-21T13:27:53.126Z,11.68
2023-05-21T13:30:21.434Z,10.80
2023-05-21T13:32:48.916Z,13.27
2023-05-21T13:35:16.950Z,6.60
2023-05-21T13:37:44.750Z,9.77
2023-05-21T13:40:15.348Z,12.57
2023-05-21T13:42:47.117Z,24.17
2023-05-21T13:45:16.715Z,12.00
2023-05-21T13:47:45.220Z,10.25
2023-05-21T13:50:12.597Z,37.65
2023-05-21T13:52:39.776Z,11.50
2023-05-21T13:55:07.321Z,13.48
2023-05-21T13:57:34.227Z,19.65
2023-05-21T14:00:01.534Z,9.73
2023-05-21T14:02:28.793Z,8.35
2023-05-21T14:04:55.766Z,11.00
2023-05-21T14:07:22.788Z,5.38
2023-05-21T14:09:50.083Z,11.45
2023-05-21T14:12:17.352Z,9.50
2023-05-21T14:14:44.262Z,9.88
2023-05-21T14:17:11.251Z,11.27
2023-05-21T14:19:38.045Z,8.45
2023-05-21T14:22:04.979Z,7.32
2023-05-21T14:24:31.701Z,8.60
2023-05-21T14:26:58.598Z,9.82
2023-05-21T14:29:25.374Z,7.13
2023-05-21T14:31:52.132Z,7.82
2023-05-21T14:34:18.950Z,8.95
2023-05-21T14:36:46.153Z,8.77
2023-05-21T14:39:12.881Z,7.75
2023-05-21T14:41:39.932Z,8.60
2023-05-21T14:44:06.861Z,12.13
2023-05-21T14:46:34.028Z,17.50
2023-05-21T14:49:01.012Z,9.27
2023-05-21T14:51:28.197Z,8.35
2023-05-21T14:53:57.280Z,8.82
2023-05-21T14:56:26.827Z,6.38
2023-05-21T14:58:54.058Z,5.53
2023-05-21T15:01:21.072Z,10.23
2023-05-21T15:03:47.981Z,8.45
2023-05-21T15:06:14.889Z,8.00
2023-05-21T15:08:41.615Z,5.40
2023-05-21T15:11:10.237Z,7.25
2023-05-21T15:13:37.209Z,9.70
2023-05-21T15:16:04.259Z,4.55
2023-05-21T15:18:31.100Z,8.10
2023-05-21T15:20:58.430Z,6.03
2023-05-21T15:23:25.471Z,4.95
2023-05-21T15:25:52.409Z,5.15
2023-05-21T15:28:20.320Z,6.57
2023-05-21T15:30:47.097Z,5.70
2023-05-21T15:33:14.949Z,6.40
2023-05-21T15:35:42.363Z,5.28
2023-05-21T15:38:10.160Z,5.63
2023-05-21T15:40:41.380Z,4.43
2023-05-21T15:43:10.710Z,3.47
2023-05-21T15:45:38.869Z,4.07
2023-05-21T15:48:09.001Z,4.95
2023-05-21T15:50:35.963Z,6.05
2023-05-21T15:53:04.300Z,9.23
2023-05-21T15:55:34.091Z,6.75
2023-05-21T15:58:02.450Z,7.95
2023-05-21T16:00:29.569Z,5.88
2023-05-21T16:02:56.596Z,10.55
2023-05-21T16:05:23.760Z,11.38
2023-05-21T16:07:50.602Z,11.48
2023-05-21T16:10:17.504Z,6.68
2023-05-21T16:12:44.379Z,11.40
2023-05-21T16:15:11.258Z,11.00
2023-05-21T16:17:38.152Z,8.15
2023-05-21T16:20:05.714Z,13.55
2023-05-21T16:22:33.560Z,11.13
2023-05-21T16:25:00.250Z,8.98
2023-05-21T16:27:27.042Z,5.50
2023-05-21T16:29:53.827Z,7.28
2023-05-21T16:32:21.333Z,13.65
2023-05-21T16:34:48.368Z,7.53
2023-05-21T16:37:15.101Z,12.52
2023-05-21T16:39:41.934Z,9.30
2023-05-21T16:42:08.746Z,7.25
2023-05-21T16:44:37.105Z,4.82
2023-05-21T16:47:04.530Z,6.45
2023-05-21T16:49:32.423Z,6.50
2023-05-21T16:51:59.154Z,7.15
2023-05-21T16:54:27.108Z,9.38
2023-05-21T16:56:55.092Z,7.80
2023-05-21T16:59:22.069Z,6.05
2023-05-21T17:01:49.027Z,9.90
2023-05-21T17:04:15.850Z,10.10
2023-05-21T17:06:42.625Z,8.70
2023-05-21T17:09:09.370Z,7.70
2023-05-21T17:11:36.203Z,4.07
2023-05-21T17:14:03.222Z,9.40
2023-05-21T17:16:30.135Z,8.57
2023-05-21T17:18:57.126Z,7.55
2023-05-21T17:21:23.995Z,15.57
2023-05-21T17:23:50.718Z,9.05
2023-05-21T17:26:17.508Z,8.38
2023-05-21T17:28:44.371Z,6.78
2023-05-21T17:31:11.185Z,9.65
2023-05-21T17:33:38.109Z,4.43
2023-05-21T17:36:05.178Z,5.10
2023-05-21T17:38:31.984Z,8.25
2023-05-21T17:40:59.483Z,5.70
2023-05-21T17:43:31.920Z,5.82
2023-05-21T17:45:58.809Z,7.97
2023-05-21T17:48:26.133Z,8.68
2023-05-21T17:50:52.958Z,6.15
2023-05-21T17:53:19.835Z,6.93
2023-05-21T17:55:46.668Z,10.45
2023-05-21T17:58:13.421Z,6.47
2023-05-21T18:00:40.401Z,7.38
2023-05-21T18:03:09.666Z,12.40
2023-05-21T18:05:36.794Z,11.38
2023-05-21T18:08:04.226Z,16.40
2023-05-21T18:10:30.991Z,8.43
2023-05-21T18:12:57.997Z,11.15
2023-05-21T18:15:24.808Z,20.33
2023-05-21T18:17:51.659Z,13.50
2023-05-21T18:20:18.556Z,8.18
2023-05-21T18:22:45.569Z,6.60
2023-05-21T18:25:12.427Z,9.77
2023-05-21T18:27:39.211Z,8.32
2023-05-21T18:30:07.069Z,6.35
2023-05-21T18:32:34.604Z,9.52
2023-05-21T18:35:01.431Z,3.85
2023-05-21T18:37:29.257Z,5.95
2023-05-21T18:39:56.050Z,6.15
2023-05-21T18:42:22.797Z,7.00
2023-05-21T18:44:52.422Z,9.60
2023-05-21T18:47:19.314Z,12.93
2023-05-21T18:49:46.041Z,13.20
2023-05-21T18:52:13.114Z,8.70
2023-05-21T18:54:39.922Z,9.88
2023-05-21T18:57:06.762Z,12.30
2023-05-21T18:59:33.604Z,11.65
2023-05-21T19:02:01.760Z,14.13
2023-05-21T19:04:28.847Z,10.07
2023-05-21T19:06:55.996Z,7.10
2023-05-21T19:09:22.844Z,7.40
2023-05-21T19:11:50.727Z,17.08
2023-05-21T19:14:17.551Z,20.73
2023-05-21T19:16:44.336Z,15.65
2023-05-21T19:19:11.096Z,17.83
2023-05-21T19:21:37.874Z,11.80
2023-05-21T19:24:05.991Z,10.75
2023-05-21T19:26:37.623Z,6.57
2023-05-21T19:29:04.433Z,10.02
2023-05-21T19:31:31.208Z,14.55
2023-05-21T19:33:57.966Z,11.82
2023-05-21T19:36:24.799Z,12.40
2023-05-21T19:38:51.692Z,8.05
2023-05-21T19:41:19.752Z,19.75
2023-05-21T19:43:46.996Z,13.65
2023-05-21T19:46:17.113Z,12.63
2023-05-21T19:48:45.966Z,15.20
2023-05-21T19:51:13.453Z,17.10
2023-05-21T19:53:43.323Z,8.20
2023-05-21T19:56:10.002Z,13.13
2023-05-21T19:58:36.814Z,15.82
2023-05-21T20:01:03.718Z,8.90
2023-05-21T20:03:36.180Z,6.60
2023-05-21T20:06:03.655Z,8.13
2023-05-21T20:08:30.936Z,8.68
2023-05-21T20:10:57.709Z,9.70
2023-05-21T20:13:25.229Z,6.13
2023-05-21T20:15:52.484Z,3.72
2023-05-21T20:18:21.517Z,8.65
2023-05-21T20:20:49.207Z,3.70
2023-05-21T20:23:16.032Z,13.27
2023-05-21T20:25:42.871Z,10.02
2023-05-21T20:28:09.734Z,4.82
2023-05-21T20:30:57.500Z,8.43
2023-05-21T20:33:25.561Z,5.78
2023-05-21T20:35:52.436Z,6.38
2023-05-21T20:38:21.049Z,5.13
2023-05-21T20:40:48.118Z,7.05
2023-05-21T20:43:15.472Z,9.05
2023-05-21T20:45:43.664Z,12.40
2023-05-21T20:48:12.150Z,11.90
2023-05-21T20:50:40.932Z,9.05
2023-05-21T20:53:08.809Z,8.15
2023-05-21T20:55:36.613Z,9.48
2023-05-21T20:58:04.500Z,10.63
2023-05-21T21:00:34.339Z,6.13
2023-05-21T21:03:02.214Z,6.72
2023-05-21T21:05:29.115Z,6.05
2023-05-21T21:07:56.144Z,4.75
2023-05-21T21:10:23.088Z,9.35
2023-05-21T21:12:49.940Z,6.70
2023-05-21T21:15:16.868Z,6.28
2023-05-21T21:17:43.731Z,6.15
2023-05-21T21:20:12.871Z,4.68
2023-05-21T21:22:39.844Z,7.25
2023-05-21T21:25:06.882Z,7.68
2023-05-21T21:27:33.728Z,4.50
2023-05-21T21:30:04.795Z,5.07
2023-05-21T21:32:31.710Z,6.95
2023-05-21T21:34:58.566Z,5.03
2023-05-21T21:37:25.642Z,8.15
2023-05-21T21:39:53.335Z,7.07
2023-05-21T21:42:20.118Z,7.75
2023-05-21T21:44:47.236Z,8.35
2023-05-21T21:47:13.992Z,9.05
2023-05-21T21:49:41.584Z,5.32
2023-05-21T21:52:08.410Z,4.03
2023-05-21T21:54:35.374Z,6.05
2023-05-21T21:57:02.161Z,8.02
2023-05-21T21:59:29.386Z,6.55
2023-05-21T22:01:56.296Z,4.07
2023-05-21T22:04:23.139Z,6.65
2023-05-21T22:06:50.359Z,5.18
2023-05-21T22:09:17.680Z,6.97
2023-05-21T22:11:44.474Z,3.55
2023-05-21T22:14:11.787Z,4.07
2023-05-21T22:16:38.801Z,4.45
2023-05-21T22:19:05.654Z,5.60
2023-05-21T22:21:33.199Z,5.43
2023-05-21T22:24:00.219Z,5.22
2023-05-21T22:26:27.053Z,5.22
2023-05-21T22:28:53.912Z,4.50
2023-05-21T22:31:21.022Z,3.80
2023-05-21T22:33:49.648Z,3.97
2023-05-21T22:36:16.429Z,10.77
2023-05-21T22:38:43.904Z,3.30
2023-05-21T22:41:11.222Z,7.72
2023-05-21T22:43:38.225Z,4.40
2023-05-21T22:46:05.096Z,5.45
2023-05-21T22:48:34.553Z,3.67
2023-05-21T22:51:01.990Z,5.70
2023-05-21T22:53:28.928Z,6.18
2023-05-21T22:55:55.717Z,4.88
2023-05-21T22:58:22.451Z,3.95
2023-05-21T23:00:49.642Z,4.00
2023-05-21T23:03:16.936Z,3.50
2023-05-21T23:05:44.205Z,6.53
2023-05-21T23:08:11.067Z,6.55
2023-05-21T23:10:38.120Z,7.43
2023-05-21T23:13:08.000Z,6.45
2023-05-21T23:15:34.723Z,6.60
2023-05-21T23:18:04.015Z,5.13
2023-05-21T23:20:32.489Z,4.55
2023-05-21T23:22:59.297Z,4.20
2023-05-21T23:25:26.059Z,6.13
2023-05-21T23:27:53.067Z,3.92
2023-05-21T23:30:19.902Z,4.85
2023-05-21T23:32:46.658Z,5.20
2023-05-21T23:35:14.510Z,4.00
2023-05-21T23:37:41.252Z,5.53
2023-05-21T23:40:09.354Z,7.25
2023-05-21T23:42:36.178Z,5.60
2023-05-21T23:45:04.535Z,6.00
2023-05-21T23:47:31.240Z,9.25
2023-05-21T23:49:57.996Z,12.50
2023-05-21T23:52:24.740Z,5.90
2023-05-21T23:54:51.477Z,7.72
2023-05-21T23:57:18.268Z,4.95
2023-05-21T23:59:45.013Z,8.32
